METAR Data
IDs: Format: Raw Decoded Include TAF

Data at: 0240 UTC 25 Jan 2020

PAHC 250156Z AUTO 34013G17KT 10SM CLR M21/M25 A3005 RMK AO2 SLP181 T12061250 FZRANO
PAHC 250056Z AUTO 34008KT 300V010 10SM CLR M20/M24 A3005 RMK AO2 SLP182 T12001244 FZRANO
PAHC 242356Z AUTO 33008KT 10SM CLR M20/M25 A3005 RMK AO2 SLP180 T12001250 11194 21233 58009 FZRANO
PAHC 242256Z AUTO VRB04KT 10SM CLR M20/M25 A3006 RMK AO2 SLP184 T12001250 FZRANO
PAHC 242156Z AUTO 32007KT 230V010 10SM CLR M21/M26 A3007 RMK AO2 SLP186 T12111256 FZRANO
PAHC 242056Z AUTO VRB05G18KT 10SM CLR M21/M26 A3008 RMK AO2 SLP189 T12111256 53004 FZRANO
PAHC 241956Z AUTO 32007KT 10SM CLR M22/M26 A3007 RMK AO2 SLP186 T12221256 FZRANO
PAHC 241856Z AUTO 31007KT 10SM CLR M22/M26 A3006 RMK AO2 SLP185 T12221256 FZRANO
PAHC 241756Z AUTO VRB04KT 10SM CLR M23/M26 A3006 RMK AO2 SLP185 T12331261 11200 21239 53000 FZRANO
PAHC 241656Z AUTO VRB04KT 10SM CLR M23/M26 A3006 RMK AO2 SLP184 T12281261 FZRANO
PAHC 241556Z AUTO 34008G16KT 10SM CLR M22/M25 A3006 RMK AO2 SLP183 T12171250 FZRANO
PAHC 241456Z AUTO 34006G14KT 10SM CLR M21/M25 A3006 RMK AO2 SLP184 T12111250 58006 FZRANO
PAHC 241356Z AUTO 34006KT 10SM CLR M21/M24 A3007 RMK AO2 SLP187 T12061244 FZRANO
PAHC 241256Z AUTO 28009G15KT 10SM CLR M20/M24 A3008 RMK AO2 SLP190 T12001239 FZRANO
PAHC 241156Z AUTO 28008KT 10SM CLR M20/M24 A3008 RMK AO2 SLP191 T12001239 11144 21200 53003 FZRANO
PAHC 241056Z AUTO 27007KT 10SM CLR M19/M23 A3007 RMK AO2 SLP188 T11941233 FZRANO
PAHC 240956Z AUTO 31008KT 10SM CLR M19/M23 A3007 RMK AO2 SLP186 T11891228 FZRANO
PAHC 240856Z AUTO VRB03KT 10SM CLR M19/M22 A3007 RMK AO2 SLP188 T11891222 411281217 53004 FZRANO
PAHC 240756Z AUTO 01006KT 10SM CLR M18/M22 A3006 RMK AO2 SLP185 T11781217 FZRANO
PAHC 240656Z AUTO 01006KT 10SM FEW060 M17/M21 A3006 RMK AO2 SLP184 T11671206 FZRANO
PAHC 240556Z AUTO VRB05KT 10SM OVC060 M14/M18 A3006 RMK AO2 SNB20E29 SLP184 P0000 60000 T11441178 11128 21144 51002 FZRANO
PAHC 240456Z AUTO 28009G14KT 10SM OVC055 M14/M17 A3006 RMK AO2 SLP182 T11391172 FZRANO
PAHC 240356Z AUTO VRB03KT 10SM OVC050 M13/M17 A3007 RMK AO2 SNE48 SLP185 P0000 T11331167 FZRANO
PAHC 240256Z AUTO VRB05KT 9SM -SN OVC050 M13/M16 A3006 RMK AO2 SLP181 P0000 60000 T11281156 51001 FZRANO
PAHC 240156Z AUTO 26005KT 9SM -SN OVC048 M13/M15 A3005 RMK AO2 SLP181 P0000 T11281150 FZRANO
PAHC 240056Z AUTO 28004KT 6SM -SN BR OVC046 M13/M15 A3006 RMK AO2 SLP181 P0000 T11281150 FZRANO
PAHC 232356Z AUTO 28006KT 9SM -SN OVC046 M13/M16 A3005 RMK AO2 SLP180 P0000 60000 T11281156 11128 21172 53006 FZRANO
PAHC 232256Z AUTO 27005KT 9SM -SN OVC046 M13/M16 A3004 RMK AO2 SLP177 P0000 T11331156 FZRANO
PAHC 232156Z AUTO VRB05KT 9SM -SN OVC046 M14/M16 A3004 RMK AO2 SNB45 SLP178 P0000 T11391161 FZRANO
PAHC 232056Z AUTO 27007KT 10SM OVC044 M14/M17 A3004 RMK AO2 SNE36 SLP176 P0000 60000 T11441167 51011 FZRANO
PAHC 231956Z AUTO 28005KT 10SM -SN OVC036 M15/M17 A3003 RMK AO2 SNB52 SLP172 P0000 T11501172 FZRANO
PAHC 231856Z AUTO 29005KT 10SM OVC036 M16/M17 A3001 RMK AO2 SLP168 T11561172 FZRANO
PAHC 231809Z AUTO 00000KT 10SM SCT025 OVC034 M17/M19 A3001 RMK AO2 FZRANO
PAHC 231756Z AUTO 00000KT 10SM BKN025 OVC034 M17/M19 A3000 RMK AO2 SNE47 SLP164 P0000 60000 T11671189 11150 21172 51012 FZRANO
PAHC 231656Z AUTO 25004KT 9SM -SN OVC025 M15/M17 A3000 RMK AO2 SLP162 P0000 T11501167 FZRANO
PAHC 231556Z AUTO 00000KT 9SM -SN OVC027 M17/M19 A2998 RMK AO2 SLP157 P0000 T11671189 FZRANO
PAHC 231525Z AUTO 00000KT 9SM -SN OVC029 M17/M19 A2998 RMK AO2 P0000 FZRANO
PAHC 231456Z AUTO 00000KT 9SM -SN OVC033 M17/M19 A2997 RMK AO2 SLP152 P0000 60000 T11671189 53009 FZRANO